sensor_id;sensor_type;location;lat;lon;timestamp;P1;durP1;ratioP1;P2;durP2;ratioP2
18738;SDS011;9498;51.862;19.460;2022-10-16T00:00:39;21.77;;;11.07;;
18738;SDS011;9498;51.862;19.460;2022-10-16T00:03:07;27.00;;;11.50;;
18738;SDS011;9498;51.862;19.460;2022-10-16T00:05:38;21.07;;;11.23;;
18738;SDS011;9498;51.862;19.460;2022-10-16T00:08:05;21.17;;;11.70;;
18738;SDS011;9498;51.862;19.460;2022-10-16T00:10:34;20.27;;;11.80;;
18738;SDS011;9498;51.862;19.460;2022-10-16T00:13:01;21.37;;;12.13;;
18738;SDS011;9498;51.862;19.460;2022-10-16T00:15:29;20.87;;;10.90;;
18738;SDS011;9498;51.862;19.460;2022-10-16T00:17:56;18.83;;;11.03;;
18738;SDS011;9498;51.862;19.460;2022-10-16T00:20:24;21.57;;;12.07;;
18738;SDS011;9498;51.862;19.460;2022-10-16T00:22:51;25.03;;;11.93;;
18738;SDS011;9498;51.862;19.460;2022-10-16T00:25:18;23.93;;;11.30;;
18738;SDS011;9498;51.862;19.460;2022-10-16T00:27:47;23.47;;;12.07;;
18738;SDS011;9498;51.862;19.460;2022-10-16T00:30:14;21.43;;;11.30;;
18738;SDS011;9498;51.862;19.460;2022-10-16T00:32:41;21.63;;;12.30;;
18738;SDS011;9498;51.862;19.460;2022-10-16T00:35:08;22.40;;;11.80;;
18738;SDS011;9498;51.862;19.460;2022-10-16T00:37:35;22.10;;;11.90;;
18738;SDS011;9498;51.862;19.460;2022-10-16T00:40:03;24.27;;;11.90;;
18738;SDS011;9498;51.862;19.460;2022-10-16T00:42:30;22.87;;;12.40;;
18738;SDS011;9498;51.862;19.460;2022-10-16T00:44:59;26.33;;;12.60;;
18738;SDS011;9498;51.862;19.460;2022-10-16T00:47:27;22.03;;;12.40;;
18738;SDS011;9498;51.862;19.460;2022-10-16T00:49:57;25.23;;;13.40;;
18738;SDS011;9498;51.862;19.460;2022-10-16T00:52:26;21.30;;;12.23;;
18738;SDS011;9498;51.862;19.460;2022-10-16T00:54:53;26.97;;;12.70;;
18738;SDS011;9498;51.862;19.460;2022-10-16T00:57:21;22.60;;;11.57;;
18738;SDS011;9498;51.862;19.460;2022-10-16T00:59:48;23.87;;;12.60;;
18738;SDS011;9498;51.862;19.460;2022-10-16T01:02:17;22.50;;;11.77;;
18738;SDS011;9498;51.862;19.460;2022-10-16T01:04:45;25.73;;;14.10;;
18738;SDS011;9498;51.862;19.460;2022-10-16T01:07:14;23.77;;;12.47;;
18738;SDS011;9498;51.862;19.460;2022-10-16T01:09:47;27.93;;;12.83;;
18738;SDS011;9498;51.862;19.460;2022-10-16T01:12:18;22.67;;;12.97;;
18738;SDS011;9498;51.862;19.460;2022-10-16T01:14:48;24.50;;;12.63;;
18738;SDS011;9498;51.862;19.460;2022-10-16T01:17:21;23.37;;;11.97;;
18738;SDS011;9498;51.862;19.460;2022-10-16T01:19:51;24.90;;;12.40;;
18738;SDS011;9498;51.862;19.460;2022-10-16T01:22:24;25.53;;;12.73;;
18738;SDS011;9498;51.862;19.460;2022-10-16T01:24:53;26.37;;;12.60;;
18738;SDS011;9498;51.862;19.460;2022-10-16T01:27:24;26.70;;;12.53;;
18738;SDS011;9498;51.862;19.460;2022-10-16T01:29:52;23.57;;;13.03;;
18738;SDS011;9498;51.862;19.460;2022-10-16T01:32:23;21.47;;;12.00;;
18738;SDS011;9498;51.862;19.460;2022-10-16T01:34:51;23.23;;;12.20;;
18738;SDS011;9498;51.862;19.460;2022-10-16T01:37:21;24.37;;;13.20;;
18738;SDS011;9498;51.862;19.460;2022-10-16T01:39:49;26.20;;;12.80;;
18738;SDS011;9498;51.862;19.460;2022-10-16T01:42:19;23.57;;;12.40;;
18738;SDS011;9498;51.862;19.460;2022-10-16T01:44:49;22.90;;;12.57;;
18738;SDS011;9498;51.862;19.460;2022-10-16T01:47:17;27.27;;;12.70;;
18738;SDS011;9498;51.862;19.460;2022-10-16T01:49:46;21.70;;;12.33;;
18738;SDS011;9498;51.862;19.460;2022-10-16T01:52:15;23.48;;;13.93;;
18738;SDS011;9498;51.862;19.460;2022-10-16T01:54:43;22.53;;;12.50;;
18738;SDS011;9498;51.862;19.460;2022-10-16T01:57:12;21.43;;;12.20;;
18738;SDS011;9498;51.862;19.460;2022-10-16T01:59:42;24.75;;;14.00;;
18738;SDS011;9498;51.862;19.460;2022-10-16T02:02:12;26.90;;;12.77;;
18738;SDS011;9498;51.862;19.460;2022-10-16T02:04:40;21.17;;;11.83;;
18738;SDS011;9498;51.862;19.460;2022-10-16T02:07:09;24.00;;;12.50;;
18738;SDS011;9498;51.862;19.460;2022-10-16T02:09:37;26.50;;;12.43;;
18738;SDS011;9498;51.862;19.460;2022-10-16T02:12:06;25.70;;;12.83;;
18738;SDS011;9498;51.862;19.460;2022-10-16T02:14:35;25.70;;;12.40;;
18738;SDS011;9498;51.862;19.460;2022-10-16T02:17:09;39.27;;;14.53;;
18738;SDS011;9498;51.862;19.460;2022-10-16T02:19:38;22.80;;;12.30;;
18738;SDS011;9498;51.862;19.460;2022-10-16T02:22:06;27.37;;;12.50;;
18738;SDS011;9498;51.862;19.460;2022-10-16T02:24:35;24.20;;;12.33;;
18738;SDS011;9498;51.862;19.460;2022-10-16T02:27:05;26.00;;;12.73;;
18738;SDS011;9498;51.862;19.460;2022-10-16T02:29:34;25.10;;;12.60;;
18738;SDS011;9498;51.862;19.460;2022-10-16T02:32:04;24.63;;;13.33;;
18738;SDS011;9498;51.862;19.460;2022-10-16T02:34:32;24.67;;;13.50;;
18738;SDS011;9498;51.862;19.460;2022-10-16T02:37:02;25.97;;;12.77;;
18738;SDS011;9498;51.862;19.460;2022-10-16T02:39:30;32.83;;;13.80;;
18738;SDS011;9498;51.862;19.460;2022-10-16T02:41:58;31.00;;;14.40;;
18738;SDS011;9498;51.862;19.460;2022-10-16T02:44:25;25.27;;;13.60;;
18738;SDS011;9498;51.862;19.460;2022-10-16T02:46:52;27.80;;;14.30;;
18738;SDS011;9498;51.862;19.460;2022-10-16T02:49:19;25.27;;;13.13;;
18738;SDS011;9498;51.862;19.460;2022-10-16T02:51:46;26.30;;;14.20;;
18738;SDS011;9498;51.862;19.460;2022-10-16T02:54:15;28.30;;;14.00;;
18738;SDS011;9498;51.862;19.460;2022-10-16T02:56:42;25.40;;;13.23;;
18738;SDS011;9498;51.862;19.460;2022-10-16T02:59:09;34.90;;;14.47;;
18738;SDS011;9498;51.862;19.460;2022-10-16T03:01:37;33.20;;;16.48;;
18738;SDS011;9498;51.862;19.460;2022-10-16T03:04:04;29.97;;;15.20;;
18738;SDS011;9498;51.862;19.460;2022-10-16T03:06:31;26.37;;;14.50;;
18738;SDS011;9498;51.862;19.460;2022-10-16T03:08:58;27.97;;;13.97;;
18738;SDS011;9498;51.862;19.460;2022-10-16T03:11:27;31.70;;;15.90;;
18738;SDS011;9498;51.862;19.460;2022-10-16T03:13:54;33.80;;;14.93;;
18738;SDS011;9498;51.862;19.460;2022-10-16T03:16:21;33.73;;;15.27;;
18738;SDS011;9498;51.862;19.460;2022-10-16T03:18:49;32.70;;;16.70;;
18738;SDS011;9498;51.862;19.460;2022-10-16T03:21:16;36.10;;;16.87;;
18738;SDS011;9498;51.862;19.460;2022-10-16T03:23:43;33.23;;;16.60;;
18738;SDS011;9498;51.862;19.460;2022-10-16T03:26:11;37.97;;;17.00;;
18738;SDS011;9498;51.862;19.460;2022-10-16T03:28:40;35.20;;;17.27;;
18738;SDS011;9498;51.862;19.460;2022-10-16T03:31:07;34.93;;;16.37;;
18738;SDS011;9498;51.862;19.460;2022-10-16T03:33:34;39.87;;;18.70;;
18738;SDS011;9498;51.862;19.460;2022-10-16T03:36:02;39.13;;;18.07;;
18738;SDS011;9498;51.862;19.460;2022-10-16T03:38:29;38.60;;;19.17;;
18738;SDS011;9498;51.862;19.460;2022-10-16T03:40:56;41.97;;;18.87;;
18738;SDS011;9498;51.862;19.460;2022-10-16T03:43:24;45.80;;;19.60;;
18738;SDS011;9498;51.862;19.460;2022-10-16T03:45:52;39.47;;;18.30;;
18738;SDS011;9498;51.862;19.460;2022-10-16T03:48:19;46.53;;;19.97;;
18738;SDS011;9498;51.862;19.460;2022-10-16T03:50:47;40.27;;;18.43;;
18738;SDS011;9498;51.862;19.460;2022-10-16T03:53:15;40.00;;;18.57;;
18738;SDS011;9498;51.862;19.460;2022-10-16T03:55:43;42.20;;;19.40;;
18738;SDS011;9498;51.862;19.460;2022-10-16T03:58:10;38.30;;;18.97;;
18738;SDS011;9498;51.862;19.460;2022-10-16T04:00:39;38.20;;;18.43;;
18738;SDS011;9498;51.862;19.460;2022-10-16T04:03:09;40.85;;;21.05;;
18738;SDS011;9498;51.862;19.460;2022-10-16T04:05:36;45.77;;;19.67;;
18738;SDS011;9498;51.862;19.460;2022-10-16T04:08:03;50.53;;;19.13;;
18738;SDS011;9498;51.862;19.460;2022-10-16T04:10:31;38.73;;;18.03;;
18738;SDS011;9498;51.862;19.460;2022-10-16T04:12:58;38.73;;;17.93;;
18738;SDS011;9498;51.862;19.460;2022-10-16T04:15:25;40.37;;;18.37;;
18738;SDS011;9498;51.862;19.460;2022-10-16T04:17:53;38.67;;;17.87;;
18738;SDS011;9498;51.862;19.460;2022-10-16T04:20:21;40.53;;;17.97;;
18738;SDS011;9498;51.862;19.460;2022-10-16T04:22:49;42.70;;;19.17;;
18738;SDS011;9498;51.862;19.460;2022-10-16T04:25:16;39.53;;;18.23;;
18738;SDS011;9498;51.862;19.460;2022-10-16T04:27:43;38.97;;;17.67;;
18738;SDS011;9498;51.862;19.460;2022-10-16T04:30:10;40.57;;;18.00;;
18738;SDS011;9498;51.862;19.460;2022-10-16T04:32:38;38.77;;;18.43;;
18738;SDS011;9498;51.862;19.460;2022-10-16T04:35:05;36.63;;;17.57;;
18738;SDS011;9498;51.862;19.460;2022-10-16T04:37:34;37.83;;;17.80;;
18738;SDS011;9498;51.862;19.460;2022-10-16T04:40:01;41.13;;;18.07;;
18738;SDS011;9498;51.862;19.460;2022-10-16T04:42:29;49.30;;;17.73;;
18738;SDS011;9498;51.862;19.460;2022-10-16T04:44:56;40.13;;;18.00;;
18738;SDS011;9498;51.862;19.460;2022-10-16T04:47:23;37.90;;;17.17;;
18738;SDS011;9498;51.862;19.460;2022-10-16T04:49:50;37.27;;;17.00;;
18738;SDS011;9498;51.862;19.460;2022-10-16T04:52:18;40.30;;;17.73;;
18738;SDS011;9498;51.862;19.460;2022-10-16T04:54:47;34.53;;;17.40;;
18738;SDS011;9498;51.862;19.460;2022-10-16T04:57:15;36.07;;;17.40;;
18738;SDS011;9498;51.862;19.460;2022-10-16T04:59:42;37.73;;;17.70;;
18738;SDS011;9498;51.862;19.460;2022-10-16T05:02:09;37.77;;;18.30;;
18738;SDS011;9498;51.862;19.460;2022-10-16T05:04:37;38.13;;;17.67;;
18738;SDS011;9498;51.862;19.460;2022-10-16T05:07:04;41.70;;;17.83;;
18738;SDS011;9498;51.862;19.460;2022-10-16T05:09:31;36.03;;;17.03;;
18738;SDS011;9498;51.862;19.460;2022-10-16T05:12:00;32.93;;;16.97;;
18738;SDS011;9498;51.862;19.460;2022-10-16T05:14:28;41.83;;;18.73;;
18738;SDS011;9498;51.862;19.460;2022-10-16T05:16:55;36.97;;;17.63;;
18738;SDS011;9498;51.862;19.460;2022-10-16T05:19:23;37.17;;;17.53;;
18738;SDS011;9498;51.862;19.460;2022-10-16T05:21:50;33.30;;;17.27;;
18738;SDS011;9498;51.862;19.460;2022-10-16T05:24:17;30.70;;;16.40;;
18738;SDS011;9498;51.862;19.460;2022-10-16T05:26:44;34.03;;;16.57;;
18738;SDS011;9498;51.862;19.460;2022-10-16T05:29:13;38.47;;;17.57;;
18738;SDS011;9498;51.862;19.460;2022-10-16T05:31:40;36.37;;;16.00;;
18738;SDS011;9498;51.862;19.460;2022-10-16T05:34:08;30.90;;;15.93;;
18738;SDS011;9498;51.862;19.460;2022-10-16T05:36:35;35.30;;;16.47;;
18738;SDS011;9498;51.862;19.460;2022-10-16T05:39:02;33.27;;;16.43;;
18738;SDS011;9498;51.862;19.460;2022-10-16T05:41:29;36.23;;;16.67;;
18738;SDS011;9498;51.862;19.460;2022-10-16T05:43:57;33.73;;;16.00;;
18738;SDS011;9498;51.862;19.460;2022-10-16T05:46:25;34.10;;;16.37;;
18738;SDS011;9498;51.862;19.460;2022-10-16T05:48:52;37.17;;;17.47;;
18738;SDS011;9498;51.862;19.460;2022-10-16T05:51:19;31.77;;;15.97;;
18738;SDS011;9498;51.862;19.460;2022-10-16T05:53:47;34.93;;;16.33;;
18738;SDS011;9498;51.862;19.460;2022-10-16T05:56:14;32.87;;;16.50;;
18738;SDS011;9498;51.862;19.460;2022-10-16T05:58:41;39.60;;;16.47;;
18738;SDS011;9498;51.862;19.460;2022-10-16T06:01:11;37.80;;;16.27;;
18738;SDS011;9498;51.862;19.460;2022-10-16T06:03:40;35.40;;;17.00;;
18738;SDS011;9498;51.862;19.460;2022-10-16T06:06:08;35.03;;;16.03;;
18738;SDS011;9498;51.862;19.460;2022-10-16T06:08:35;31.80;;;16.30;;
18738;SDS011;9498;51.862;19.460;2022-10-16T06:11:03;32.30;;;15.87;;
18738;SDS011;9498;51.862;19.460;2022-10-16T06:13:30;32.73;;;16.00;;
18738;SDS011;9498;51.862;19.460;2022-10-16T06:15:58;32.17;;;16.10;;
18738;SDS011;9498;51.862;19.460;2022-10-16T06:18:26;31.60;;;16.00;;
18738;SDS011;9498;51.862;19.460;2022-10-16T06:20:55;30.47;;;16.30;;
18738;SDS011;9498;51.862;19.460;2022-10-16T06:23:22;31.80;;;15.03;;
18738;SDS011;9498;51.862;19.460;2022-10-16T06:25:49;39.27;;;17.37;;
18738;SDS011;9498;51.862;19.460;2022-10-16T06:28:16;31.10;;;15.40;;
18738;SDS011;9498;51.862;19.460;2022-10-16T06:30:44;32.13;;;15.60;;
18738;SDS011;9498;51.862;19.460;2022-10-16T06:33:11;32.13;;;15.67;;
18738;SDS011;9498;51.862;19.460;2022-10-16T06:35:38;32.13;;;15.37;;
18738;SDS011;9498;51.862;19.460;2022-10-16T06:38:07;30.73;;;16.13;;
18738;SDS011;9498;51.862;19.460;2022-10-16T06:40:34;27.70;;;14.67;;
18738;SDS011;9498;51.862;19.460;2022-10-16T06:43:01;28.23;;;14.47;;
18738;SDS011;9498;51.862;19.460;2022-10-16T06:45:29;30.17;;;15.57;;
18738;SDS011;9498;51.862;19.460;2022-10-16T06:47:56;33.10;;;15.90;;
18738;SDS011;9498;51.862;19.460;2022-10-16T06:50:23;28.97;;;14.60;;
18738;SDS011;9498;51.862;19.460;2022-10-16T06:52:50;29.00;;;14.47;;
18738;SDS011;9498;51.862;19.460;2022-10-16T06:55:19;31.80;;;15.77;;
18738;SDS011;9498;51.862;19.460;2022-10-16T06:57:46;31.00;;;15.53;;
18738;SDS011;9498;51.862;19.460;2022-10-16T07:00:14;30.80;;;16.35;;
18738;SDS011;9498;51.862;19.460;2022-10-16T07:02:41;28.73;;;15.53;;
18738;SDS011;9498;51.862;19.460;2022-10-16T07:05:08;31.03;;;15.20;;
18738;SDS011;9498;51.862;19.460;2022-10-16T07:07:35;25.63;;;14.57;;
18738;SDS011;9498;51.862;19.460;2022-10-16T07:10:03;28.03;;;14.00;;
18738;SDS011;9498;51.862;19.460;2022-10-16T07:12:31;29.63;;;14.73;;
18738;SDS011;9498;51.862;19.460;2022-10-16T07:14:59;28.07;;;14.63;;
18738;SDS011;9498;51.862;19.460;2022-10-16T07:17:26;29.73;;;14.37;;
18738;SDS011;9498;51.862;19.460;2022-10-16T07:19:53;31.53;;;15.50;;
18738;SDS011;9498;51.862;19.460;2022-10-16T07:22:20;26.33;;;14.67;;
18738;SDS011;9498;51.862;19.460;2022-10-16T07:24:47;28.90;;;14.70;;
18738;SDS011;9498;51.862;19.460;2022-10-16T07:27:15;28.07;;;14.43;;
18738;SDS011;9498;51.862;19.460;2022-10-16T07:29:44;28.67;;;14.80;;
18738;SDS011;9498;51.862;19.460;2022-10-16T07:32:11;36.03;;;16.10;;
18738;SDS011;9498;51.862;19.460;2022-10-16T07:34:38;32.87;;;14.80;;
18738;SDS011;9498;51.862;19.460;2022-10-16T07:37:05;30.90;;;15.10;;
18738;SDS011;9498;51.862;19.460;2022-10-16T07:39:32;33.23;;;16.77;;
18738;SDS011;9498;51.862;19.460;2022-10-16T07:42:00;31.10;;;15.37;;
18738;SDS011;9498;51.862;19.460;2022-10-16T07:44:27;29.60;;;14.93;;
18738;SDS011;9498;51.862;19.460;2022-10-16T07:46:56;32.13;;;16.37;;
18738;SDS011;9498;51.862;19.460;2022-10-16T07:49:24;31.20;;;15.50;;
18738;SDS011;9498;51.862;19.460;2022-10-16T07:51:51;32.20;;;16.37;;
18738;SDS011;9498;51.862;19.460;2022-10-16T07:54:18;34.37;;;16.40;;
18738;SDS011;9498;51.862;19.460;2022-10-16T07:56:45;31.47;;;14.97;;
18738;SDS011;9498;51.862;19.460;2022-10-16T07:59:12;34.40;;;16.20;;
18738;SDS011;9498;51.862;19.460;2022-10-16T08:01:40;27.97;;;14.87;;
18738;SDS011;9498;51.862;19.460;2022-10-16T08:04:09;32.40;;;15.97;;
18738;SDS011;9498;51.862;19.460;2022-10-16T08:06:37;27.53;;;14.30;;
18738;SDS011;9498;51.862;19.460;2022-10-16T08:09:05;33.70;;;15.97;;
18738;SDS011;9498;51.862;19.460;2022-10-16T08:11:32;26.20;;;14.60;;
18738;SDS011;9498;51.862;19.460;2022-10-16T08:14:00;30.77;;;15.10;;
18738;SDS011;9498;51.862;19.460;2022-10-16T08:16:27;26.50;;;15.00;;
18738;SDS011;9498;51.862;19.460;2022-10-16T08:18:54;27.13;;;15.03;;
18738;SDS011;9498;51.862;19.460;2022-10-16T08:21:23;29.05;;;16.42;;
18738;SDS011;9498;51.862;19.460;2022-10-16T08:23:50;27.60;;;14.90;;
18738;SDS011;9498;51.862;19.460;2022-10-16T08:26:18;30.70;;;14.70;;
18738;SDS011;9498;51.862;19.460;2022-10-16T08:28:45;28.00;;;14.57;;
18738;SDS011;9498;51.862;19.460;2022-10-16T08:31:13;30.30;;;15.23;;
18738;SDS011;9498;51.862;19.460;2022-10-16T08:33:41;30.00;;;16.73;;
18738;SDS011;9498;51.862;19.460;2022-10-16T08:36:09;29.80;;;14.27;;
18738;SDS011;9498;51.862;19.460;2022-10-16T08:38:38;26.53;;;14.47;;
18738;SDS011;9498;51.862;19.460;2022-10-16T08:41:14;26.30;;;14.10;;
18738;SDS011;9498;51.862;19.460;2022-10-16T08:43:52;25.37;;;13.93;;
18738;SDS011;9498;51.862;19.460;2022-10-16T08:46:25;24.83;;;13.73;;
18738;SDS011;9498;51.862;19.460;2022-10-16T08:48:56;26.10;;;14.30;;
18738;SDS011;9498;51.862;19.460;2022-10-16T08:51:24;27.73;;;15.07;;
18738;SDS011;9498;51.862;19.460;2022-10-16T08:53:54;28.23;;;13.75;;
18738;SDS011;9498;51.862;19.460;2022-10-16T08:56:22;25.80;;;13.77;;
18738;SDS011;9498;51.862;19.460;2022-10-16T08:58:50;25.90;;;13.57;;
18738;SDS011;9498;51.862;19.460;2022-10-16T09:01:18;26.13;;;13.60;;
18738;SDS011;9498;51.862;19.460;2022-10-16T09:06:59;29.17;;;15.40;;
18738;SDS011;9498;51.862;19.460;2022-10-16T09:09:38;24.93;;;13.27;;
18738;SDS011;9498;51.862;19.460;2022-10-16T09:12:10;24.37;;;13.87;;
18738;SDS011;9498;51.862;19.460;2022-10-16T09:14:41;27.70;;;14.90;;
18738;SDS011;9498;51.862;19.460;2022-10-16T09:17:17;28.38;;;15.25;;
18738;SDS011;9498;51.862;19.460;2022-10-16T09:19:49;28.80;;;14.57;;
18738;SDS011;9498;51.862;19.460;2022-10-16T09:22:18;23.03;;;13.50;;
18738;SDS011;9498;51.862;19.460;2022-10-16T09:24:50;22.50;;;12.60;;
18738;SDS011;9498;51.862;19.460;2022-10-16T09:27:17;25.73;;;14.00;;
18738;SDS011;9498;51.862;19.460;2022-10-16T09:29:44;26.17;;;14.27;;
18738;SDS011;9498;51.862;19.460;2022-10-16T09:32:12;21.60;;;12.70;;
18738;SDS011;9498;51.862;19.460;2022-10-16T09:34:42;24.93;;;13.47;;
18738;SDS011;9498;51.862;19.460;2022-10-16T09:37:12;31.60;;;13.63;;
18738;SDS011;9498;51.862;19.460;2022-10-16T09:39:46;20.00;;;12.37;;
18738;SDS011;9498;51.862;19.460;2022-10-16T09:42:16;24.45;;;14.10;;
18738;SDS011;9498;51.862;19.460;2022-10-16T09:44:46;25.77;;;13.00;;
18738;SDS011;9498;51.862;19.460;2022-10-16T09:47:15;20.73;;;12.17;;
18738;SDS011;9498;51.862;19.460;2022-10-16T09:49:50;23.33;;;12.13;;
18738;SDS011;9498;51.862;19.460;2022-10-16T09:52:18;20.05;;;12.27;;
18738;SDS011;9498;51.862;19.460;2022-10-16T09:54:49;19.07;;;11.53;;
18738;SDS011;9498;51.862;19.460;2022-10-16T09:57:18;22.00;;;11.70;;
18738;SDS011;9498;51.862;19.460;2022-10-16T09:59:46;24.00;;;11.77;;
18738;SDS011;9498;51.862;19.460;2022-10-16T10:02:14;22.10;;;12.83;;
18738;SDS011;9498;51.862;19.460;2022-10-16T10:04:43;23.15;;;12.93;;
18738;SDS011;9498;51.862;19.460;2022-10-16T10:07:16;21.40;;;11.83;;
18738;SDS011;9498;51.862;19.460;2022-10-16T10:09:44;21.83;;;12.33;;
18738;SDS011;9498;51.862;19.460;2022-10-16T10:12:20;21.57;;;12.10;;
18738;SDS011;9498;51.862;19.460;2022-10-16T10:14:48;24.13;;;12.70;;
18738;SDS011;9498;51.862;19.460;2022-10-16T10:17:17;21.73;;;11.73;;
18738;SDS011;9498;51.862;19.460;2022-10-16T10:19:46;20.90;;;11.20;;
18738;SDS011;9498;51.862;19.460;2022-10-16T10:22:17;25.10;;;11.67;;
18738;SDS011;9498;51.862;19.460;2022-10-16T10:24:54;17.40;;;10.20;;
18738;SDS011;9498;51.862;19.460;2022-10-16T10:27:23;19.90;;;12.32;;
18738;SDS011;9498;51.862;19.460;2022-10-16T10:29:53;18.23;;;11.20;;
18738;SDS011;9498;51.862;19.460;2022-10-16T10:32:24;21.37;;;10.80;;
18738;SDS011;9498;51.862;19.460;2022-10-16T10:35:01;23.57;;;10.87;;
18738;SDS011;9498;51.862;19.460;2022-10-16T10:37:34;22.00;;;11.60;;
18738;SDS011;9498;51.862;19.460;2022-10-16T10:40:09;19.10;;;11.33;;
18738;SDS011;9498;51.862;19.460;2022-10-16T10:42:41;21.40;;;11.73;;
18738;SDS011;9498;51.862;19.460;2022-10-16T10:45:17;19.50;;;10.17;;
18738;SDS011;9498;51.862;19.460;2022-10-16T10:47:51;22.33;;;11.00;;
18738;SDS011;9498;51.862;19.460;2022-10-16T10:50:24;19.07;;;10.97;;
18738;SDS011;9498;51.862;19.460;2022-10-16T10:52:59;19.67;;;10.80;;
18738;SDS011;9498;51.862;19.460;2022-10-16T10:55:31;18.27;;;11.10;;
18738;SDS011;9498;51.862;19.460;2022-10-16T11:00:51;16.23;;;10.20;;
18738;SDS011;9498;51.862;19.460;2022-10-16T11:03:27;17.98;;;10.90;;
18738;SDS011;9498;51.862;19.460;2022-10-16T11:05:58;18.37;;;10.27;;
18738;SDS011;9498;51.862;19.460;2022-10-16T11:08:27;17.67;;;10.17;;
18738;SDS011;9498;51.862;19.460;2022-10-16T11:10:57;17.10;;;9.87;;
18738;SDS011;9498;51.862;19.460;2022-10-16T11:13:28;16.95;;;9.63;;
18738;SDS011;9498;51.862;19.460;2022-10-16T11:15:58;20.13;;;10.57;;
18738;SDS011;9498;51.862;19.460;2022-10-16T11:18:27;17.43;;;10.60;;
18738;SDS011;9498;51.862;19.460;2022-10-16T11:20:56;23.00;;;9.23;;
18738;SDS011;9498;51.862;19.460;2022-10-16T11:23:25;22.27;;;10.57;;
18738;SDS011;9498;51.862;19.460;2022-10-16T11:25:54;17.77;;;9.70;;
18738;SDS011;9498;51.862;19.460;2022-10-16T11:28:23;19.17;;;10.07;;
18738;SDS011;9498;51.862;19.460;2022-10-16T11:30:54;20.53;;;9.17;;
18738;SDS011;9498;51.862;19.460;2022-10-16T11:33:29;15.47;;;9.10;;
18738;SDS011;9498;51.862;19.460;2022-10-16T11:36:00;15.73;;;8.57;;
18738;SDS011;9498;51.862;19.460;2022-10-16T11:38:30;15.50;;;9.32;;
18738;SDS011;9498;51.862;19.460;2022-10-16T11:41:00;14.73;;;8.83;;
18738;SDS011;9498;51.862;19.460;2022-10-16T11:43:30;15.47;;;8.60;;
18738;SDS011;9498;51.862;19.460;2022-10-16T11:46:02;17.37;;;8.73;;
18738;SDS011;9498;51.862;19.460;2022-10-16T11:48:33;17.35;;;9.30;;
18738;SDS011;9498;51.862;19.460;2022-10-16T11:51:05;15.13;;;8.83;;
18738;SDS011;9498;51.862;19.460;2022-10-16T11:53:37;15.03;;;8.17;;
18738;SDS011;9498;51.862;19.460;2022-10-16T11:56:06;16.03;;;8.47;;
18738;SDS011;9498;51.862;19.460;2022-10-16T11:58:34;14.77;;;8.03;;
18738;SDS011;9498;51.862;19.460;2022-10-16T12:01:06;15.30;;;8.33;;
18738;SDS011;9498;51.862;19.460;2022-10-16T12:03:42;13.27;;;7.63;;
18738;SDS011;9498;51.862;19.460;2022-10-16T12:06:13;15.93;;;8.10;;
18738;SDS011;9498;51.862;19.460;2022-10-16T12:08:43;11.73;;;7.37;;
18738;SDS011;9498;51.862;19.460;2022-10-16T12:11:20;14.38;;;7.40;;
18738;SDS011;9498;51.862;19.460;2022-10-16T12:13:49;13.40;;;7.33;;
18738;SDS011;9498;51.862;19.460;2022-10-16T12:16:20;11.43;;;7.00;;
18738;SDS011;9498;51.862;19.460;2022-10-16T12:18:49;12.47;;;7.37;;
18738;SDS011;9498;51.862;19.460;2022-10-16T12:21:30;10.93;;;6.80;;
18738;SDS011;9498;51.862;19.460;2022-10-16T12:23:58;9.80;;;5.77;;
18738;SDS011;9498;51.862;19.460;2022-10-16T12:26:26;10.70;;;6.10;;
18738;SDS011;9498;51.862;19.460;2022-10-16T12:28:54;10.43;;;5.73;;
18738;SDS011;9498;51.862;19.460;2022-10-16T12:31:22;9.87;;;5.73;;
18738;SDS011;9498;51.862;19.460;2022-10-16T12:33:56;10.77;;;6.30;;
18738;SDS011;9498;51.862;19.460;2022-10-16T12:36:27;9.53;;;5.70;;
18738;SDS011;9498;51.862;19.460;2022-10-16T12:38:55;9.00;;;5.67;;
18738;SDS011;9498;51.862;19.460;2022-10-16T12:41:25;11.70;;;6.57;;
18738;SDS011;9498;51.862;19.460;2022-10-16T12:43:53;9.00;;;5.97;;
18738;SDS011;9498;51.862;19.460;2022-10-16T12:46:24;14.10;;;6.13;;
18738;SDS011;9498;51.862;19.460;2022-10-16T12:49:20;11.30;;;5.80;;
18738;SDS011;9498;51.862;19.460;2022-10-16T12:51:49;10.40;;;5.53;;
18738;SDS011;9498;51.862;19.460;2022-10-16T12:54:17;8.30;;;5.30;;
18738;SDS011;9498;51.862;19.460;2022-10-16T12:56:53;8.77;;;5.67;;
18738;SDS011;9498;51.862;19.460;2022-10-16T12:59:29;11.60;;;6.87;;
18738;SDS011;9498;51.862;19.460;2022-10-16T13:02:05;9.17;;;5.80;;
18738;SDS011;9498;51.862;19.460;2022-10-16T13:04:43;10.53;;;6.13;;
18738;SDS011;9498;51.862;19.460;2022-10-16T13:07:17;10.20;;;6.10;;
18738;SDS011;9498;51.862;19.460;2022-10-16T13:09:50;10.33;;;5.87;;
18738;SDS011;9498;51.862;19.460;2022-10-16T13:12:25;9.13;;;6.17;;
18738;SDS011;9498;51.862;19.460;2022-10-16T13:15:01;11.47;;;5.93;;
18738;SDS011;9498;51.862;19.460;2022-10-16T13:17:33;12.03;;;6.57;;
18738;SDS011;9498;51.862;19.460;2022-10-16T13:20:06;13.40;;;6.53;;
18738;SDS011;9498;51.862;19.460;2022-10-16T13:22:39;11.83;;;6.40;;
18738;SDS011;9498;51.862;19.460;2022-10-16T13:25:13;13.00;;;7.13;;
18738;SDS011;9498;51.862;19.460;2022-10-16T13:27:46;13.70;;;7.00;;
18738;SDS011;9498;51.862;19.460;2022-10-16T13:30:18;12.63;;;7.03;;
18738;SDS011;9498;51.862;19.460;2022-10-16T13:32:46;13.50;;;7.50;;
18738;SDS011;9498;51.862;19.460;2022-10-16T13:35:23;14.43;;;7.70;;
18738;SDS011;9498;51.862;19.460;2022-10-16T13:37:50;14.60;;;7.57;;
18738;SDS011;9498;51.862;19.460;2022-10-16T13:40:19;13.20;;;7.00;;
18738;SDS011;9498;51.862;19.460;2022-10-16T13:42:46;12.43;;;7.63;;
18738;SDS011;9498;51.862;19.460;2022-10-16T13:45:17;15.70;;;8.10;;
18738;SDS011;9498;51.862;19.460;2022-10-16T13:47:44;13.50;;;7.80;;
18738;SDS011;9498;51.862;19.460;2022-10-16T13:50:12;12.70;;;7.40;;
18738;SDS011;9498;51.862;19.460;2022-10-16T13:52:41;13.23;;;7.47;;
18738;SDS011;9498;51.862;19.460;2022-10-16T13:55:10;13.40;;;7.07;;
18738;SDS011;9498;51.862;19.460;2022-10-16T13:57:38;12.90;;;7.10;;
18738;SDS011;9498;51.862;19.460;2022-10-16T14:00:17;12.67;;;8.00;;
18738;SDS011;9498;51.862;19.460;2022-10-16T14:02:44;13.53;;;7.40;;
18738;SDS011;9498;51.862;19.460;2022-10-16T14:05:12;11.70;;;7.10;;
18738;SDS011;9498;51.862;19.460;2022-10-16T14:07:42;13.30;;;7.73;;
18738;SDS011;9498;51.862;19.460;2022-10-16T14:10:18;13.83;;;7.50;;
18738;SDS011;9498;51.862;19.460;2022-10-16T14:12:53;14.87;;;7.83;;
18738;SDS011;9498;51.862;19.460;2022-10-16T14:15:20;16.10;;;8.70;;
18738;SDS011;9498;51.862;19.460;2022-10-16T14:17:48;14.60;;;8.33;;
18738;SDS011;9498;51.862;19.460;2022-10-16T14:20:17;16.60;;;8.73;;
18738;SDS011;9498;51.862;19.460;2022-10-16T14:22:46;14.97;;;8.93;;
18738;SDS011;9498;51.862;19.460;2022-10-16T14:25:19;14.90;;;8.80;;
18738;SDS011;9498;51.862;19.460;2022-10-16T14:27:55;17.60;;;9.00;;
18738;SDS011;9498;51.862;19.460;2022-10-16T14:30:23;14.37;;;8.30;;
18738;SDS011;9498;51.862;19.460;2022-10-16T14:32:54;18.80;;;8.80;;
18738;SDS011;9498;51.862;19.460;2022-10-16T14:35:23;14.97;;;9.03;;
18738;SDS011;9498;51.862;19.460;2022-10-16T14:37:52;16.87;;;8.90;;
18738;SDS011;9498;51.862;19.460;2022-10-16T14:40:20;16.37;;;9.03;;
18738;SDS011;9498;51.862;19.460;2022-10-16T14:42:48;15.20;;;8.93;;